Pagrindinis puslapis
METAR-TAF:

METAR-TAF

Oro uostai :

Ernšioldsvikas, Švedija

platuma: 63-24N, ilguma: 018-58E, Aukštis: 103 m

Dabartinis oras

Ataskaita buvo paskelbta 13 minutes, ne 16:20 UTC
Vėjas 11 kt iš Šiaurės Vakarų
Temperatūra -1°C
Drėgmė 80%
Slėgis 982 hPa
Matomumas 10 km arba daugiau

METAR: ESNO 071620Z AUTO 31011KT 9999 NCD M01/M04 Q0982

Laikas: 17:33 (16:33 UTC)

Prognozė

Ataskaita buvo paskelbta 11 valandos ir 3 minutes, ne 05:30 UTC
Prognozė galioja nuo 07 metu 06 UTC su 07 metu 08 UTC
Vėjas 6 kt iš Pietvakarių
Matomumas 10 km arba daugiau
nėra debesų žemiau 1500 m ir nėra kamuolinių lietaus debesų

TAF: ESNO 070530Z 0706/0708 22006KT CAVOK

Orai ataskaitas ir orų prognozės (METAR, TAF).

turimą stotys yra geltonos ir raudonos taškus žemėlapyje.

Perkelti pele per norėdami pamatyti stoties vardą.

Tada spustelėkite, norėdami matyti oro stebėjimo ir prognozės.

Norėdami pakeisti žemėlapį: spustelėkite ant žalios mygtukų su juodo kryžiaus žemyn,; žalią mygtuką su brūkšneliu, jei norite nutolinti; arba žalių rodyklių gretimoms žemėlapius.


METAR-TAF: